Siloam Springs, AR

5:22 AM CDT on March 27, 2015 (GMT -0500)
NW Arkansas Airport | | Change Station
CLOSE
Current Station
Airport
Location: NW Arkansas Airport,
Elevation: 1286 ft
Nearby Weather Stations

Elev 1286 ft 36.28 °N, 94.31 °W | Updated 29 minutes ago

Partly Cloudy
Partly Cloudy
40 °F
Feels Like 36 °F
N
6
Wind Variable Wind from NE

Today
High -- | Low -- °F
--% Chance of Precip.
Yesterday
High -- | Low -- °F
Precip. -- in
7:11 AM 7:35 PM
Waxing Crescent, 51% visible
Pressure 30.05 in
Visibility 10.0 miles
Clouds Mostly Cloudy 7000 ft
Mostly Cloudy 9000 ft
Mostly Cloudy 12000 ft
Windchill 36 °F
Dew Point 35 °F
Humidity 83%
Rainfall 0.00 in
Snow Depth Not available.
UV 0 out of 12
Pollen 7.60 out of 12
Air Quality Not available.
Flu Activity Not available.
METAR KXNA 270953Z AUTO 04005KT 10SM BKN070 BKN090 BKN120 04/02 A3005 RMK AO2 SLP175 T00440017

More Conditions Fewer Conditions

Pressure 30.05 in
Visibility 10.0 miles
Clouds Mostly Cloudy 7000 ft
Mostly Cloudy 9000 ft
Mostly Cloudy 12000 ft
Windchill 36 °F
Dew Point 35 °F
Humidity 83%
Rainfall 0.00 in
Snow Depth Not available.
UV 0 out of 12
Pollen 7.60 out of 12
Air Quality Not available.
Flu Activity Not available.
METAR KXNA 270953Z AUTO 04005KT 10SM BKN070 BKN090 BKN120 04/02 A3005 RMK AO2 SLP175 T00440017

More Conditions Fewer Conditions

Nowcast | as of 4:55 am CDT on March 27, 2015

At 455 am...Doppler radars continued to indicate isolated very light showers across portions of far northwest Arkansas pushing to the southeast at 40 mph. Through 7 am...light showers will continue to affect areas to the north and east of a line from Rogers to Huntsville. Rainfall amounts will be light...and likely not more than a few hundredths of an inch at most.

×

10-Day Weather Forecast

Almanac

Astronomy

Mar. 27, 2015 Rise Set
Actual Time
Civil Twilight
Nautical Twilight
Astronomical Twilight
Moon
Length of Visible Light
Length of Day
Tomorrow will be .
, % of the Moon is Illuminated

Today's Extremes

State Highs State Lows

Community

WunderPhotos

Upload Photos

1,808,706 photos uploaded!

WunderBlogs® & News

Nearby

Air Quality

  Air Quality AQ Index Pollutant
Not available.

Snow Depth

Station Depth Elevation

Earthquake Activity

City Distance Mag. Time & Date
Minimum magnitude displayed is 2.5.

Coastal Water Temperatures

Place Temperature

Stations

Nearby Weather Stations

Station Location Temp. Windchill Dew Point Humidity Wind Precip. Elev Updated Type